createdAt,value
2019-05-14T10:53:23.508Z,101542.86
2019-05-14T10:55:58.246Z,101548.10
2019-05-14T10:58:34.736Z,101543.23
2019-05-14T11:01:11.319Z,101544.34
2019-05-14T11:03:42.265Z,101532.64
2019-05-14T11:06:18.750Z,101533.25
2019-05-14T11:08:51.951Z,101527.14
2019-05-14T11:11:25.236Z,101523.75
2019-05-14T11:13:58.446Z,101533.69
2019-05-14T11:16:31.468Z,101522.47
2019-05-14T11:19:04.208Z,101530.36
2019-05-14T11:21:39.197Z,101519.82
2019-05-14T11:24:12.309Z,101513.37
2019-05-14T11:26:48.750Z,101507.55
2019-05-14T11:29:22.443Z,101513.31
2019-05-14T11:31:56.074Z,101502.70
2019-05-14T11:34:28.979Z,101495.05
2019-05-14T11:37:03.278Z,101493.86
2019-05-14T11:39:37.948Z,101496.28
2019-05-14T11:42:11.159Z,101478.31
2019-05-14T11:44:44.885Z,101486.96
2019-05-14T11:47:18.171Z,101482.95
2019-05-14T11:49:51.439Z,101486.98
2019-05-14T11:52:24.850Z,101472.86
2019-05-14T11:54:59.221Z,101477.28
2019-05-14T11:57:34.020Z,101477.70
2019-05-14T12:00:09.431Z,101477.95
2019-05-14T12:02:42.743Z,101478.59
2019-05-14T12:05:18.930Z,101473.55
2019-05-14T12:07:59.566Z,101464.67
2019-05-14T12:10:33.104Z,101465.00
2019-05-14T12:13:08.391Z,101474.60
2019-05-14T12:15:41.015Z,101462.19
2019-05-14T12:18:18.982Z,101456.70
2019-05-14T12:20:52.078Z,101457.39
2019-05-14T12:23:25.798Z,101455.67
2019-05-14T12:25:59.069Z,101441.97
2019-05-14T12:28:38.458Z,101441.97
2019-05-14T12:31:11.103Z,101441.08
2019-05-14T12:33:45.110Z,101436.55
2019-05-14T12:36:19.271Z,101434.06
2019-05-14T12:38:58.973Z,101428.13
2019-05-14T12:41:31.074Z,101422.89
2019-05-14T12:44:09.216Z,101427.05
2019-05-14T12:46:40.970Z,101423.03
2019-05-14T12:49:18.697Z,101418.02
2019-05-14T12:51:52.603Z,101425.22
2019-05-14T12:54:29.592Z,101426.83
2019-05-14T12:57:02.077Z,101425.98
2019-05-14T12:59:38.148Z,101408.15
2019-05-14T13:02:13.163Z,101418.05
2019-05-14T13:04:48.706Z,101408.41
2019-05-14T13:07:22.753Z,101402.53
2019-05-14T13:09:58.412Z,101399.31
2019-05-14T13:12:39.022Z,101403.96
2019-05-14T13:15:11.112Z,101403.19
2019-05-14T13:17:48.438Z,101401.78
2019-05-14T13:20:21.406Z,101392.96
2019-05-14T13:22:57.433Z,101394.20
2019-05-14T13:25:30.568Z,101390.67
2019-05-14T13:28:08.808Z,101384.81
2019-05-14T13:30:42.889Z,101380.61
2019-05-14T13:33:19.070Z,101373.29
2019-05-14T13:35:51.870Z,101361.80
2019-05-14T13:38:25.558Z,101356.33
2019-05-14T13:41:00.372Z,101347.83
2019-05-14T13:43:33.477Z,101348.03
2019-05-14T13:46:10.429Z,101337.78
2019-05-14T13:48:44.210Z,101347.80
2019-05-14T13:51:19.543Z,101336.38
2019-05-14T13:53:52.702Z,101338.56
2019-05-14T13:56:28.197Z,101328.50
2019-05-14T13:59:02.752Z,101320.12
2019-05-14T14:01:37.442Z,101318.37
2019-05-14T14:04:14.739Z,101309.30
2019-05-14T14:06:46.427Z,101318.77
2019-05-14T14:09:19.823Z,101320.96
2019-05-14T14:11:55.333Z,101305.88
2019-05-14T14:14:29.225Z,101320.21
2019-05-14T14:17:02.290Z,101310.34
2019-05-14T14:19:38.897Z,101305.50
2019-05-14T14:22:11.692Z,101319.08
2019-05-14T14:24:48.703Z,101309.66
2019-05-14T14:27:22.553Z,101308.75
2019-05-14T14:29:58.355Z,101296.06
2019-05-14T14:32:31.336Z,101283.06
2019-05-14T14:35:04.722Z,101288.28
2019-05-14T14:37:39.665Z,101272.59
2019-05-14T14:40:14.930Z,101275.45
2019-05-14T14:42:49.349Z,101279.68
2019-05-14T14:45:23.355Z,101273.50
2019-05-14T14:48:01.435Z,101265.20
2019-05-14T14:50:38.817Z,101267.17
2019-05-14T14:53:11.390Z,101259.91
2019-05-14T14:55:49.452Z,101257.85
2019-05-14T14:58:20.770Z,101263.41
2019-05-14T15:00:54.495Z,101258.91
2019-05-14T15:03:29.574Z,101250.58
2019-05-14T15:06:03.123Z,101261.13
2019-05-14T15:08:38.921Z,101258.64
2019-05-14T15:11:17.578Z,101258.13
2019-05-14T15:13:50.216Z,101250.62
2019-05-14T15:16:23.691Z,101250.37
2019-05-14T15:18:59.391Z,101246.63
2019-05-14T15:21:34.545Z,101250.31
2019-05-14T15:24:15.194Z,101246.17
2019-05-14T15:26:45.206Z,101246.66
2019-05-14T15:29:21.237Z,101239.92
2019-05-14T15:31:59.300Z,101237.06
2019-05-14T15:34:33.254Z,101234.34
2019-05-14T15:37:08.778Z,101233.83
2019-05-14T15:39:43.745Z,101231.90
2019-05-14T15:42:19.535Z,101233.22
2019-05-14T15:44:56.059Z,101228.73
2019-05-14T15:47:29.634Z,101225.26
2019-05-14T15:50:09.220Z,101223.53
2019-05-14T15:52:41.628Z,101219.69
2019-05-14T15:55:14.996Z,101212.66
2019-05-14T15:57:49.055Z,101214.03
2019-05-14T16:00:21.859Z,101214.21
2019-05-14T16:03:00.031Z,101207.57
2019-05-14T16:05:30.469Z,101206.30
2019-05-14T16:08:11.646Z,101200.22
2019-05-14T16:10:45.291Z,101200.66
2019-05-14T16:13:21.134Z,101198.86
2019-05-14T16:15:54.834Z,101193.16
2019-05-14T16:18:29.666Z,101188.03
2019-05-14T16:21:03.357Z,101189.42
2019-05-14T16:23:38.778Z,101183.94
2019-05-14T16:26:14.325Z,101188.00
2019-05-14T16:28:49.261Z,101176.80
2019-05-14T16:31:21.897Z,101176.97
2019-05-14T16:33:54.874Z,101176.80
2019-05-14T16:36:29.122Z,101180.39
2019-05-14T16:39:02.770Z,101186.80
2019-05-14T16:41:38.946Z,101188.08
2019-05-14T16:44:12.795Z,101189.45
2019-05-14T16:46:46.989Z,101182.30
2019-05-14T16:49:21.163Z,101179.19
2019-05-14T16:51:54.346Z,101186.17
2019-05-14T16:54:29.454Z,101185.75
2019-05-14T16:57:04.495Z,101182.84
2019-05-14T16:59:39.811Z,101183.05
2019-05-14T17:02:13.564Z,101181.05
2019-05-14T17:04:48.360Z,101173.70
2019-05-14T17:07:22.612Z,101178.12
2019-05-14T17:10:00.633Z,101176.39
2019-05-14T17:12:48.351Z,101168.87
2019-05-14T17:15:09.804Z,101177.30
2019-05-14T17:17:43.644Z,101171.42
2019-05-14T17:20:23.966Z,101174.06
2019-05-14T17:22:59.421Z,101169.13
2019-05-14T17:26:31.253Z,101166.88
2019-05-14T17:29:01.353Z,101170.79
2019-05-14T17:31:41.150Z,101170.39
2019-05-14T17:37:21.363Z,101171.84
2019-05-14T17:39:54.874Z,101172.64
2019-05-14T17:42:28.712Z,101174.67
2019-05-14T17:45:02.246Z,101175.33
2019-05-14T17:47:35.027Z,101171.14
2019-05-14T17:50:10.608Z,101168.67
2019-05-14T17:52:45.219Z,101167.19
2019-05-14T17:55:18.817Z,101173.05
2019-05-14T17:57:57.961Z,101162.02
2019-05-14T18:00:28.898Z,101169.22
2019-05-14T18:03:02.873Z,101168.50
2019-05-14T18:05:36.428Z,101165.59
2019-05-14T18:08:10.078Z,101165.78
2019-05-14T18:10:43.636Z,101162.66
2019-05-14T18:13:18.281Z,101157.91
2019-05-14T18:15:51.773Z,101160.16
2019-05-14T18:18:26.039Z,101150.79
2019-05-14T18:20:59.618Z,101155.82
2019-05-14T18:23:32.042Z,101146.04
2019-05-14T18:26:09.033Z,101146.77
2019-05-14T18:28:40.682Z,101146.02
2019-05-14T18:31:15.185Z,101146.14
2019-05-14T18:33:49.112Z,101139.19
2019-05-14T18:36:23.178Z,101146.11
2019-05-14T18:38:58.571Z,101142.37
2019-05-14T18:41:32.052Z,101144.22
2019-05-14T18:44:08.252Z,101142.39
2019-05-14T18:46:41.100Z,101136.81
2019-05-14T18:49:14.635Z,101144.20
2019-05-14T18:51:50.365Z,101141.33
2019-05-14T18:54:25.046Z,101145.70
2019-05-14T18:56:59.730Z,101148.91
2019-05-14T18:59:32.659Z,101148.32
2019-05-14T19:02:05.337Z,101142.45
2019-05-14T19:04:38.276Z,101149.52
2019-05-14T19:07:15.467Z,101148.97
2019-05-14T19:09:49.473Z,101143.89
2019-05-14T19:12:23.173Z,101141.63
2019-05-14T19:14:58.979Z,101146.17
2019-05-14T19:17:32.220Z,101148.14
2019-05-14T19:20:08.292Z,101152.58
2019-05-14T19:22:41.461Z,101148.27
2019-05-14T19:25:14.316Z,101152.46
2019-05-14T19:27:48.732Z,101148.73
2019-05-14T19:30:22.150Z,101145.87
2019-05-14T19:32:55.071Z,101151.20
2019-05-14T19:35:28.886Z,101152.57
2019-05-14T19:38:02.384Z,101152.59
2019-05-14T19:40:35.862Z,101151.45
2019-05-14T19:43:11.178Z,101154.14
2019-05-14T19:45:44.077Z,101156.41
2019-05-14T19:48:18.960Z,101156.41
2019-05-14T19:50:52.437Z,101161.48
2019-05-14T19:53:25.569Z,101160.21
2019-05-14T19:55:59.332Z,101158.97
2019-05-14T19:58:32.599Z,101160.89
2019-05-14T20:01:09.050Z,101155.88
2019-05-14T20:03:42.515Z,101161.09
2019-05-14T20:06:15.245Z,101157.12
2019-05-14T20:08:49.277Z,101159.31
2019-05-14T20:11:25.896Z,101160.21
2019-05-14T20:14:00.026Z,101169.52
2019-05-14T20:16:33.461Z,101161.59
2019-05-14T20:19:08.810Z,101163.38
2019-05-14T20:21:42.902Z,101164.42
2019-05-14T20:24:18.874Z,101160.44
2019-05-14T20:27:04.884Z,101169.37
2019-05-14T20:29:27.561Z,101155.16
2019-05-14T20:32:02.036Z,101158.73
2019-05-14T20:34:35.631Z,101162.14
2019-05-14T20:37:09.546Z,101162.33
2019-05-14T20:39:43.446Z,101157.77
2019-05-14T20:42:18.347Z,101156.34
2019-05-14T20:44:52.158Z,101156.55
2019-05-14T20:47:25.462Z,101150.47
2019-05-14T20:49:58.495Z,101152.21
2019-05-14T20:52:31.750Z,101152.17
2019-05-14T20:55:05.499Z,101159.13
2019-05-14T20:57:39.022Z,101155.43
2019-05-14T21:00:12.407Z,101155.11
2019-05-14T21:02:46.060Z,101152.44
2019-05-14T21:05:19.583Z,101158.77
2019-05-14T21:07:55.029Z,101151.91
2019-05-14T21:10:29.292Z,101154.98
2019-05-14T21:13:02.010Z,101150.91
2019-05-14T21:15:34.813Z,101150.63
2019-05-14T21:18:08.411Z,101146.70
2019-05-14T21:20:42.088Z,101151.94
2019-05-14T21:23:15.181Z,101149.13
2019-05-14T21:25:49.225Z,101152.73
2019-05-14T21:28:22.292Z,101150.02
2019-05-14T21:30:55.597Z,101148.53
2019-05-14T21:33:30.379Z,101148.02
2019-05-14T21:36:04.462Z,101146.00
2019-05-14T21:38:37.946Z,101146.67
2019-05-14T21:41:13.207Z,101144.11
2019-05-14T21:43:46.042Z,101142.38
2019-05-14T21:46:19.611Z,101148.51
2019-05-14T21:48:53.472Z,101141.91
2019-05-14T21:51:28.362Z,101141.39
2019-05-14T21:54:02.773Z,101140.30
2019-05-14T21:56:38.437Z,101135.75
2019-05-14T21:59:10.755Z,101134.29
2019-05-14T22:01:43.944Z,101133.03
2019-05-14T22:04:18.655Z,101135.67
2019-05-14T22:06:52.369Z,101140.22
2019-05-14T22:09:25.101Z,101136.07
2019-05-14T22:11:58.329Z,101137.98
2019-05-14T22:14:31.240Z,101140.14
2019-05-14T22:17:04.289Z,101139.19
2019-05-14T22:19:38.427Z,101139.84
2019-05-14T22:22:12.611Z,101140.89
2019-05-14T22:24:46.047Z,101141.37
2019-05-14T22:27:19.099Z,101134.28
2019-05-14T22:29:52.821Z,101136.33
2019-05-14T22:32:25.812Z,101134.50
2019-05-14T22:34:58.632Z,101141.20
2019-05-14T22:37:31.394Z,101141.73
2019-05-14T22:40:05.804Z,101137.66
2019-05-14T22:42:39.416Z,101137.73
2019-05-14T22:45:13.552Z,101141.95
2019-05-14T22:47:48.963Z,101145.42
2019-05-14T22:50:21.456Z,101138.11
2019-05-14T22:52:55.069Z,101137.79
2019-05-14T22:55:31.211Z,101133.98
2019-05-14T22:58:03.605Z,101141.14
2019-05-14T23:00:44.787Z,101140.98
2019-05-14T23:03:12.457Z,101146.94
2019-05-14T23:05:48.390Z,101147.68
2019-05-14T23:08:21.745Z,101150.67
2019-05-14T23:10:55.174Z,101147.62
2019-05-14T23:13:28.575Z,101142.77
2019-05-14T23:16:01.141Z,101143.19
2019-05-14T23:18:33.875Z,101139.84
2019-05-14T23:21:08.961Z,101140.77
2019-05-14T23:23:41.473Z,101141.07
2019-05-14T23:26:14.831Z,101140.73
2019-05-14T23:28:49.140Z,101132.84
2019-05-14T23:31:26.105Z,101134.00
2019-05-14T23:33:59.747Z,101130.38
2019-05-14T23:36:32.953Z,101129.31
2019-05-14T23:39:08.804Z,101134.67
2019-05-14T23:41:42.228Z,101133.14
2019-05-14T23:44:15.198Z,101126.34
2019-05-14T23:46:48.678Z,101129.37
2019-05-14T23:49:21.225Z,101126.88
2019-05-14T23:51:54.135Z,101127.06
2019-05-14T23:54:29.138Z,101125.53
2019-05-14T23:57:02.031Z,101120.00
2019-05-14T23:59:35.555Z,101117.08
